DAL4382 KSFO-MMTJ
Flight info
| Callsign | DAL4382 |
|---|---|
| Flight time | 1h 18m |
| Altitude | 35000 |
| Route | WESLA5 YYUNG DCT LAX J1 TIJ |
| Aircraft | B738/M-SDE2E3FGHIRWXY/LB1 |
Departure
| Time | 2026-05-05 21:44 |
|---|---|
| Airport | San Francisco International Airport (KSFO) |
Arrival
| Time | 2026-05-05 23:03 |
|---|---|
| Airport | General Abelardo L. Rodriguez International Airport (MMTJ) |
| Time | Latitude | Longitude | Altitude | Speed | Heading |
|---|---|---|---|---|---|
| 2026-05-05 21:12 | 37.61964 | -122.38478 | 32 ft | 0 kts | 141° |
| 2026-05-05 21:34 | 37.61970 | -122.38484 | 32 ft | 2 kts | 134° |
| 2026-05-05 21:34 | 37.61979 | -122.38499 | 32 ft | 2 kts | 117° |
| 2026-05-05 21:34 | 37.61984 | -122.38517 | 32 ft | 2 kts | 102° |
| 2026-05-05 21:35 | 37.61986 | -122.38536 | 32 ft | 2 kts | 88° |
| 2026-05-05 21:35 | 37.61983 | -122.38555 | 32 ft | 2 kts | 72° |
| 2026-05-05 21:35 | 37.61977 | -122.38572 | 32 ft | 2 kts | 58° |
| 2026-05-05 21:35 | 37.61968 | -122.38586 | 32 ft | 2 kts | 43° |
| 2026-05-05 21:36 | 37.61957 | -122.38597 | 32 ft | 0 kts | 29° |
| 2026-05-05 21:36 | 37.61951 | -122.38600 | 32 ft | 0 kts | 26° |
| 2026-05-05 21:36 | 37.61951 | -122.38601 | 32 ft | 0 kts | 26° |
| 2026-05-05 21:37 | 37.61953 | -122.38599 | 32 ft | 1 kts | 25° |
| 2026-05-05 21:38 | 37.61972 | -122.38588 | 32 ft | 5 kts | 24° |
| 2026-05-05 21:38 | 37.62017 | -122.38561 | 32 ft | 9 kts | 26° |
| 2026-05-05 21:38 | 37.62063 | -122.38501 | 32 ft | 10 kts | 74° |
| 2026-05-05 21:38 | 37.62046 | -122.38399 | 32 ft | 14 kts | 113° |
| 2026-05-05 21:39 | 37.61996 | -122.38273 | 32 ft | 17 kts | 117° |
| 2026-05-05 21:39 | 37.61940 | -122.38138 | 32 ft | 17 kts | 117° |
| 2026-05-05 21:39 | 37.61886 | -122.38006 | 32 ft | 16 kts | 117° |
| 2026-05-05 21:39 | 37.61826 | -122.37853 | 29 ft | 18 kts | 115° |
| 2026-05-05 21:40 | 37.61801 | -122.37785 | 28 ft | 6 kts | 115° |
| 2026-05-05 21:40 | 37.61768 | -122.37666 | 25 ft | 23 kts | 109° |
| 2026-05-05 21:40 | 37.61689 | -122.37452 | 18 ft | 27 kts | 118° |
| 2026-05-05 21:40 | 37.61607 | -122.37252 | 15 ft | 22 kts | 117° |
| 2026-05-05 21:41 | 37.61540 | -122.37088 | 12 ft | 20 kts | 117° |
| 2026-05-05 21:41 | 37.61474 | -122.36941 | 12 ft | 18 kts | 127° |
| 2026-05-05 21:41 | 37.61384 | -122.36811 | 12 ft | 23 kts | 129° |
| 2026-05-05 21:41 | 37.61303 | -122.36631 | 12 ft | 22 kts | 117° |
| 2026-05-05 21:42 | 37.61233 | -122.36464 | 11 ft | 21 kts | 118° |
| 2026-05-05 21:42 | 37.61167 | -122.36304 | 9 ft | 18 kts | 117° |
| 2026-05-05 21:42 | 37.61113 | -122.36173 | 9 ft | 16 kts | 118° |
| 2026-05-05 21:42 | 37.61058 | -122.36031 | 9 ft | 21 kts | 105° |
| 2026-05-05 21:43 | 37.61132 | -122.35902 | 9 ft | 13 kts | 11° |
| 2026-05-05 21:43 | 37.61207 | -122.35930 | 9 ft | 12 kts | 314° |
| 2026-05-05 21:43 | 37.61243 | -122.36004 | 9 ft | 6 kts | 298° |
| 2026-05-05 21:43 | 37.61322 | -122.36196 | 10 ft | 58 kts | 296° |
| 2026-05-05 21:44 | 37.61629 | -122.36925 | 13 ft | 127 kts | 298° |
| 2026-05-05 21:44 | 37.62136 | -122.38105 | 144 ft | 170 kts | 298° |
| 2026-05-05 21:44 | 37.62727 | -122.39414 | 841 ft | 178 kts | 297° |
| 2026-05-05 21:44 | 37.63325 | -122.40868 | 1452 ft | 198 kts | 298° |
| 2026-05-05 21:45 | 37.63994 | -122.42452 | 2053 ft | 212 kts | 300° |
| 2026-05-05 21:45 | 37.64702 | -122.44072 | 2643 ft | 224 kts | 300° |
| 2026-05-05 21:45 | 37.64999 | -122.44750 | 2923 ft | 226 kts | 300° |
| 2026-05-05 21:45 | 37.65756 | -122.46477 | 3747 ft | 227 kts | 301° |
| 2026-05-05 21:46 | 37.66518 | -122.48220 | 4491 ft | 231 kts | 301° |
| 2026-05-05 21:46 | 37.67102 | -122.50106 | 5230 ft | 238 kts | 281° |
| 2026-05-05 21:46 | 37.66957 | -122.52199 | 5946 ft | 248 kts | 254° |
| 2026-05-05 21:46 | 37.66137 | -122.54139 | 6620 ft | 258 kts | 236° |
| 2026-05-05 21:47 | 37.64857 | -122.55753 | 7273 ft | 267 kts | 215° |
| 2026-05-05 21:47 | 37.63116 | -122.56563 | 7922 ft | 273 kts | 183° |
| 2026-05-05 21:47 | 37.61256 | -122.56253 | 8573 ft | 273 kts | 156° |
| 2026-05-05 21:47 | 37.59557 | -122.55201 | 9224 ft | 273 kts | 146° |
| 2026-05-05 21:48 | 37.57909 | -122.53980 | 9825 ft | 279 kts | 145° |
| 2026-05-05 21:48 | 37.56236 | -122.52740 | 10506 ft | 281 kts | 146° |
| 2026-05-05 21:48 | 37.54542 | -122.51504 | 11170 ft | 284 kts | 146° |
| 2026-05-05 21:48 | 37.53355 | -122.50644 | 11628 ft | 285 kts | 146° |
| 2026-05-05 21:49 | 37.52433 | -122.49978 | 11950 ft | 288 kts | 145° |
| 2026-05-05 21:49 | 37.51373 | -122.49209 | 12331 ft | 289 kts | 146° |
| 2026-05-05 21:49 | 37.49562 | -122.48069 | 12921 ft | 296 kts | 157° |
| 2026-05-05 21:49 | 37.47526 | -122.47612 | 13544 ft | 303 kts | 181° |
| 2026-05-05 21:50 | 37.45436 | -122.47906 | 14162 ft | 305 kts | 189° |
| 2026-05-05 21:50 | 37.43327 | -122.48377 | 14666 ft | 311 kts | 190° |
| 2026-05-05 21:50 | 37.41199 | -122.48854 | 15275 ft | 312 kts | 189° |
| 2026-05-05 21:50 | 37.39053 | -122.49306 | 15844 ft | 314 kts | 189° |
| 2026-05-05 21:51 | 37.36898 | -122.49737 | 16410 ft | 316 kts | 188° |
| 2026-05-05 21:51 | 37.34704 | -122.50154 | 16901 ft | 321 kts | 188° |
| 2026-05-05 21:51 | 37.32502 | -122.50566 | 17461 ft | 323 kts | 187° |
| 2026-05-05 21:51 | 37.30280 | -122.50978 | 18014 ft | 324 kts | 187° |
| 2026-05-05 21:52 | 37.25777 | -122.51805 | 19027 ft | 330 kts | 187° |
| 2026-05-05 21:52 | 37.23507 | -122.52220 | 19538 ft | 331 kts | 187° |
| 2026-05-05 21:52 | 37.21215 | -122.52640 | 19962 ft | 336 kts | 187° |
| 2026-05-05 21:53 | 37.18897 | -122.53064 | 20464 ft | 337 kts | 187° |
| 2026-05-05 21:53 | 37.16574 | -122.53486 | 20932 ft | 339 kts | 187° |
| 2026-05-05 21:53 | 37.14235 | -122.53910 | 21411 ft | 341 kts | 186° |
| 2026-05-05 21:53 | 37.11890 | -122.54336 | 21857 ft | 343 kts | 186° |
| 2026-05-05 21:54 | 37.09510 | -122.54769 | 22261 ft | 346 kts | 186° |
| 2026-05-05 21:54 | 37.07131 | -122.55207 | 22717 ft | 348 kts | 187° |
| 2026-05-05 21:54 | 37.04714 | -122.55587 | 23044 ft | 352 kts | 182° |
| 2026-05-05 21:54 | 37.02286 | -122.55636 | 23550 ft | 348 kts | 171° |
| 2026-05-05 21:55 | 36.99916 | -122.55118 | 23890 ft | 346 kts | 158° |
| 2026-05-05 21:55 | 36.97674 | -122.54077 | 24281 ft | 342 kts | 149° |
| 2026-05-05 21:55 | 36.95559 | -122.52730 | 24632 ft | 343 kts | 144° |
| 2026-05-05 21:55 | 36.93456 | -122.51231 | 24695 ft | 355 kts | 142° |
| 2026-05-05 21:56 | 36.91307 | -122.49628 | 24839 ft | 364 kts | 142° |
| 2026-05-05 21:56 | 36.89108 | -122.47981 | 25009 ft | 373 kts | 142° |
| 2026-05-05 21:56 | 36.86860 | -122.46307 | 25276 ft | 379 kts | 143° |
| 2026-05-05 21:56 | 36.84592 | -122.44631 | 25691 ft | 380 kts | 143° |
| 2026-05-05 21:57 | 36.82319 | -122.42969 | 26140 ft | 379 kts | 142° |
| 2026-05-05 21:57 | 36.80056 | -122.41321 | 26727 ft | 374 kts | 142° |
| 2026-05-05 21:57 | 36.77833 | -122.39705 | 27335 ft | 368 kts | 141° |
| 2026-05-05 21:57 | 36.75639 | -122.38107 | 27854 ft | 364 kts | 141° |
| 2026-05-05 21:58 | 36.73461 | -122.36515 | 28290 ft | 362 kts | 140° |
| 2026-05-05 21:58 | 36.71298 | -122.34928 | 28704 ft | 361 kts | 140° |
| 2026-05-05 21:58 | 36.69137 | -122.33342 | 29038 ft | 361 kts | 140° |
| 2026-05-05 21:58 | 36.66977 | -122.31759 | 29367 ft | 362 kts | 140° |
| 2026-05-05 21:59 | 36.64809 | -122.30173 | 29696 ft | 361 kts | 140° |
| 2026-05-05 21:59 | 36.62650 | -122.28598 | 30079 ft | 359 kts | 139° |
| 2026-05-05 21:59 | 36.60507 | -122.27040 | 30481 ft | 356 kts | 139° |
| 2026-05-05 21:59 | 36.58368 | -122.25486 | 30795 ft | 355 kts | 139° |
| 2026-05-05 22:00 | 36.56241 | -122.23938 | 31098 ft | 355 kts | 139° |
| 2026-05-05 22:00 | 36.54104 | -122.22379 | 31205 ft | 360 kts | 139° |
| 2026-05-05 22:00 | 36.51915 | -122.20774 | 31214 ft | 368 kts | 139° |
| 2026-05-05 22:00 | 36.49708 | -122.19170 | 31577 ft | 365 kts | 139° |
| 2026-05-05 22:01 | 36.47505 | -122.17577 | 31747 ft | 369 kts | 140° |
| 2026-05-05 22:01 | 36.45283 | -122.15964 | 31937 ft | 371 kts | 139° |
| 2026-05-05 22:01 | 36.43050 | -122.14346 | 32187 ft | 371 kts | 139° |
| 2026-05-05 22:01 | 36.40816 | -122.12731 | 32373 ft | 374 kts | 139° |
| 2026-05-05 22:02 | 36.38544 | -122.11081 | 32427 ft | 379 kts | 139° |
| 2026-05-05 22:02 | 36.36267 | -122.09431 | 32706 ft | 379 kts | 140° |
| 2026-05-05 22:02 | 36.33979 | -122.07782 | 32918 ft | 380 kts | 139° |
| 2026-05-05 22:02 | 36.31695 | -122.06133 | 33094 ft | 382 kts | 140° |
| 2026-05-05 22:03 | 36.29397 | -122.04473 | 33283 ft | 383 kts | 140° |
| 2026-05-05 22:03 | 36.24738 | -122.01111 | 33551 ft | 389 kts | 140° |
| 2026-05-05 22:03 | 36.22406 | -121.99433 | 33865 ft | 386 kts | 140° |
| 2026-05-05 22:04 | 36.20086 | -121.97769 | 34073 ft | 387 kts | 139° |
| 2026-05-05 22:04 | 36.15361 | -121.94361 | 34262 ft | 393 kts | 140° |
| 2026-05-05 22:05 | 36.10598 | -121.90941 | 34504 ft | 398 kts | 140° |
| 2026-05-05 22:05 | 36.05779 | -121.87488 | 34902 ft | 397 kts | 140° |
| 2026-05-05 22:05 | 36.03393 | -121.85742 | 35007 ft | 397 kts | 138° |
| 2026-05-05 22:06 | 36.01136 | -121.83800 | 35034 ft | 393 kts | 132° |
| 2026-05-05 22:06 | 35.97293 | -121.79095 | 35041 ft | 388 kts | 121° |
| 2026-05-05 22:07 | 35.93927 | -121.73828 | 35036 ft | 393 kts | 118° |
| 2026-05-05 22:07 | 35.90604 | -121.68397 | 35036 ft | 401 kts | 118° |
| 2026-05-05 22:08 | 35.87167 | -121.62869 | 35043 ft | 409 kts | 119° |
| 2026-05-05 22:08 | 35.83672 | -121.57336 | 35039 ft | 410 kts | 119° |
| 2026-05-05 22:09 | 35.80178 | -121.51825 | 35031 ft | 407 kts | 119° |
| 2026-05-05 22:09 | 35.76699 | -121.46334 | 35032 ft | 410 kts | 120° |
| 2026-05-05 22:10 | 35.73193 | -121.40797 | 35034 ft | 410 kts | 120° |
| 2026-05-05 22:10 | 35.69691 | -121.35279 | 35031 ft | 410 kts | 120° |
| 2026-05-05 22:11 | 35.66169 | -121.29741 | 35030 ft | 412 kts | 121° |
| 2026-05-05 22:11 | 35.62641 | -121.24208 | 35027 ft | 413 kts | 120° |
| 2026-05-05 22:12 | 35.59110 | -121.18664 | 35021 ft | 412 kts | 120° |
| 2026-05-05 22:12 | 35.55575 | -121.13119 | 35025 ft | 413 kts | 120° |
| 2026-05-05 22:13 | 35.52046 | -121.07591 | 35020 ft | 413 kts | 120° |
| 2026-05-05 22:13 | 35.48613 | -121.01965 | 35013 ft | 410 kts | 117° |
| 2026-05-05 22:14 | 35.45338 | -120.96242 | 35020 ft | 411 kts | 117° |
| 2026-05-05 22:14 | 35.42071 | -120.90516 | 35031 ft | 412 kts | 117° |
| 2026-05-05 22:15 | 35.38769 | -120.84793 | 35020 ft | 412 kts | 117° |
| 2026-05-05 22:15 | 35.35435 | -120.79052 | 35027 ft | 416 kts | 118° |
| 2026-05-05 22:16 | 35.32085 | -120.73309 | 35024 ft | 414 kts | 118° |
| 2026-05-05 22:16 | 35.28736 | -120.67582 | 35023 ft | 415 kts | 118° |
| 2026-05-05 22:17 | 35.25364 | -120.61827 | 35029 ft | 418 kts | 118° |
| 2026-05-05 22:17 | 35.21982 | -120.56051 | 35023 ft | 418 kts | 118° |
| 2026-05-05 22:18 | 35.18602 | -120.50288 | 35036 ft | 419 kts | 118° |
| 2026-05-05 22:18 | 35.15219 | -120.44520 | 35013 ft | 419 kts | 118° |
| 2026-05-05 22:19 | 35.11805 | -120.38721 | 35016 ft | 422 kts | 118° |
| 2026-05-05 22:19 | 35.08374 | -120.32913 | 35022 ft | 421 kts | 119° |
| 2026-05-05 22:20 | 35.04939 | -120.27114 | 35003 ft | 425 kts | 120° |
| 2026-05-05 22:20 | 35.01481 | -120.21278 | 35011 ft | 424 kts | 120° |
| 2026-05-05 22:21 | 34.98035 | -120.15473 | 35008 ft | 422 kts | 120° |
| 2026-05-05 22:21 | 34.94581 | -120.09656 | 35003 ft | 426 kts | 120° |
| 2026-05-05 22:22 | 34.91119 | -120.03809 | 35010 ft | 428 kts | 120° |
| 2026-05-05 22:22 | 34.87621 | -119.97943 | 35000 ft | 428 kts | 120° |
| 2026-05-05 22:23 | 34.84116 | -119.92077 | 35000 ft | 431 kts | 120° |
| 2026-05-05 22:23 | 34.80578 | -119.86186 | 34989 ft | 433 kts | 121° |
| 2026-05-05 22:24 | 34.77033 | -119.80258 | 35019 ft | 434 kts | 121° |
| 2026-05-05 22:24 | 34.73486 | -119.74328 | 35006 ft | 437 kts | 121° |
| 2026-05-05 22:25 | 34.69912 | -119.68366 | 35008 ft | 436 kts | 122° |
| 2026-05-05 22:25 | 34.66347 | -119.62453 | 34978 ft | 435 kts | 122° |
| 2026-05-05 22:26 | 34.62754 | -119.56510 | 35008 ft | 441 kts | 122° |
| 2026-05-05 22:26 | 34.59118 | -119.50492 | 34999 ft | 441 kts | 122° |
| 2026-05-05 22:27 | 34.55500 | -119.44510 | 34994 ft | 441 kts | 122° |
| 2026-05-05 22:27 | 34.51878 | -119.38498 | 34990 ft | 444 kts | 123° |
| 2026-05-05 22:27 | 34.50047 | -119.35483 | 34875 ft | 447 kts | 123° |
| 2026-05-05 22:28 | 34.48221 | -119.32478 | 35131 ft | 441 kts | 123° |
| 2026-05-05 22:28 | 34.46402 | -119.29494 | 35023 ft | 440 kts | 123° |
| 2026-05-05 22:28 | 34.44592 | -119.26526 | 35017 ft | 439 kts | 124° |
| 2026-05-05 22:29 | 34.40958 | -119.20566 | 35080 ft | 441 kts | 123° |
| 2026-05-05 22:29 | 34.37272 | -119.14527 | 35035 ft | 447 kts | 124° |
| 2026-05-05 22:30 | 34.33589 | -119.08497 | 35015 ft | 445 kts | 124° |
| 2026-05-05 22:30 | 34.29920 | -119.02507 | 35008 ft | 445 kts | 124° |
| 2026-05-05 22:31 | 34.26228 | -118.96490 | 35008 ft | 447 kts | 125° |
| 2026-05-05 22:31 | 34.22536 | -118.90487 | 35014 ft | 446 kts | 125° |
| 2026-05-05 22:32 | 34.18841 | -118.84483 | 35005 ft | 447 kts | 125° |
| 2026-05-05 22:32 | 34.15128 | -118.78454 | 34999 ft | 449 kts | 125° |
| 2026-05-05 22:33 | 34.11414 | -118.72438 | 35006 ft | 447 kts | 126° |
| 2026-05-05 22:33 | 34.07706 | -118.66436 | 34992 ft | 448 kts | 126° |
| 2026-05-05 22:34 | 34.03979 | -118.60413 | 34997 ft | 448 kts | 126° |
| 2026-05-05 22:34 | 34.00252 | -118.54402 | 34998 ft | 448 kts | 126° |
| 2026-05-05 22:35 | 33.96511 | -118.48385 | 34997 ft | 449 kts | 126° |
| 2026-05-05 22:35 | 33.92763 | -118.42376 | 35004 ft | 449 kts | 127° |
| 2026-05-05 22:36 | 33.88886 | -118.36488 | 35008 ft | 451 kts | 129° |
| 2026-05-05 22:36 | 33.84907 | -118.30663 | 35007 ft | 451 kts | 130° |
| 2026-05-05 22:37 | 33.80929 | -118.24843 | 34997 ft | 451 kts | 130° |
| 2026-05-05 22:37 | 33.76958 | -118.19015 | 34998 ft | 452 kts | 130° |
| 2026-05-05 22:38 | 33.72990 | -118.13178 | 34996 ft | 451 kts | 130° |
| 2026-05-05 22:38 | 33.69020 | -118.07339 | 35000 ft | 453 kts | 130° |
| 2026-05-05 22:39 | 33.65035 | -118.01486 | 34997 ft | 453 kts | 130° |
| 2026-05-05 22:39 | 33.61046 | -117.95634 | 34911 ft | 460 kts | 131° |
| 2026-05-05 22:39 | 33.59000 | -117.92638 | 34676 ft | 471 kts | 131° |
| 2026-05-05 22:40 | 33.56905 | -117.89576 | 34432 ft | 482 kts | 131° |
| 2026-05-05 22:40 | 33.54769 | -117.86455 | 34174 ft | 488 kts | 131° |
| 2026-05-05 22:40 | 33.52615 | -117.83310 | 33575 ft | 492 kts | 131° |
| 2026-05-05 22:40 | 33.50442 | -117.80139 | 32760 ft | 494 kts | 131° |
| 2026-05-05 22:41 | 33.48280 | -117.76986 | 32161 ft | 489 kts | 130° |
| 2026-05-05 22:41 | 33.46140 | -117.73864 | 31510 ft | 485 kts | 130° |
| 2026-05-05 22:41 | 33.44023 | -117.70774 | 30859 ft | 480 kts | 130° |
| 2026-05-05 22:41 | 33.41914 | -117.67700 | 30200 ft | 476 kts | 130° |
| 2026-05-05 22:42 | 33.39828 | -117.64667 | 29534 ft | 472 kts | 130° |
| 2026-05-05 22:42 | 33.37759 | -117.61659 | 28863 ft | 467 kts | 130° |
| 2026-05-05 22:42 | 33.35711 | -117.58685 | 28237 ft | 461 kts | 130° |
| 2026-05-05 22:42 | 33.33690 | -117.55754 | 27592 ft | 455 kts | 129° |
| 2026-05-05 22:43 | 33.31693 | -117.52860 | 26891 ft | 449 kts | 129° |
| 2026-05-05 22:43 | 33.29729 | -117.50016 | 26246 ft | 441 kts | 129° |
| 2026-05-05 22:43 | 33.27795 | -117.47217 | 25624 ft | 433 kts | 129° |
| 2026-05-05 22:43 | 33.25836 | -117.44528 | 24994 ft | 426 kts | 133° |
| 2026-05-05 22:44 | 33.23681 | -117.42176 | 24376 ft | 417 kts | 144° |
| 2026-05-05 22:44 | 33.21196 | -117.40476 | 23783 ft | 408 kts | 156° |
| 2026-05-05 22:44 | 33.18596 | -117.39223 | 23171 ft | 399 kts | 160° |
| 2026-05-05 22:44 | 33.16005 | -117.38134 | 22594 ft | 391 kts | 161° |
| 2026-05-05 22:45 | 33.13459 | -117.37116 | 22044 ft | 382 kts | 162° |
| 2026-05-05 22:45 | 33.10966 | -117.36127 | 21504 ft | 374 kts | 162° |
| 2026-05-05 22:45 | 33.08526 | -117.35150 | 20980 ft | 367 kts | 162° |
| 2026-05-05 22:45 | 33.06135 | -117.34180 | 20453 ft | 360 kts | 162° |
| 2026-05-05 22:46 | 33.03777 | -117.33213 | 19940 ft | 360 kts | 162° |
| 2026-05-05 22:46 | 33.01370 | -117.32220 | 19411 ft | 372 kts | 162° |
| 2026-05-05 22:46 | 32.98913 | -117.31202 | 18847 ft | 376 kts | 162° |
| 2026-05-05 22:46 | 32.96455 | -117.30178 | 18219 ft | 372 kts | 162° |
| 2026-05-05 22:47 | 32.94044 | -117.29168 | 17669 ft | 364 kts | 162° |
| 2026-05-05 22:47 | 32.91683 | -117.28178 | 17140 ft | 356 kts | 162° |
| 2026-05-05 22:47 | 32.89370 | -117.27209 | 16621 ft | 349 kts | 162° |
| 2026-05-05 22:47 | 32.87103 | -117.26260 | 16106 ft | 342 kts | 162° |
| 2026-05-05 22:48 | 32.84877 | -117.25329 | 15606 ft | 337 kts | 162° |
| 2026-05-05 22:48 | 32.82647 | -117.24397 | 15114 ft | 345 kts | 162° |
| 2026-05-05 22:48 | 32.80365 | -117.23406 | 14589 ft | 354 kts | 159° |
| 2026-05-05 22:48 | 32.78147 | -117.22125 | 14041 ft | 353 kts | 149° |
| 2026-05-05 22:49 | 32.76190 | -117.20418 | 13523 ft | 347 kts | 140° |
| 2026-05-05 22:49 | 32.74422 | -117.18519 | 13009 ft | 340 kts | 137° |
| 2026-05-05 22:49 | 32.72744 | -117.16575 | 12501 ft | 334 kts | 136° |
| 2026-05-05 22:49 | 32.71109 | -117.14656 | 12000 ft | 329 kts | 136° |
| 2026-05-05 22:50 | 32.69488 | -117.12773 | 11503 ft | 323 kts | 137° |
| 2026-05-05 22:50 | 32.67881 | -117.10937 | 11018 ft | 320 kts | 137° |
| 2026-05-05 22:50 | 32.66259 | -117.09107 | 10548 ft | 324 kts | 137° |
| 2026-05-05 22:50 | 32.64647 | -117.07297 | 10259 ft | 312 kts | 137° |
| 2026-05-05 22:51 | 32.63117 | -117.05580 | 10142 ft | 294 kts | 137° |
| 2026-05-05 22:51 | 32.61670 | -117.03956 | 10001 ft | 280 kts | 138° |
| 2026-05-05 22:51 | 32.60294 | -117.02371 | 9711 ft | 274 kts | 134° |
| 2026-05-05 22:51 | 32.59100 | -117.00579 | 9421 ft | 283 kts | 125° |
| 2026-05-05 22:52 | 32.58013 | -116.98582 | 9033 ft | 293 kts | 122° |
| 2026-05-05 22:52 | 32.56952 | -116.96527 | 8657 ft | 291 kts | 122° |
| 2026-05-05 22:52 | 32.55902 | -116.94515 | 8292 ft | 285 kts | 123° |
| 2026-05-05 22:52 | 32.54854 | -116.92551 | 7933 ft | 280 kts | 123° |
| 2026-05-05 22:53 | 32.53816 | -116.90629 | 7583 ft | 275 kts | 123° |
| 2026-05-05 22:53 | 32.52795 | -116.88742 | 7243 ft | 270 kts | 123° |
| 2026-05-05 22:53 | 32.51799 | -116.86902 | 7017 ft | 261 kts | 123° |
| 2026-05-05 22:53 | 32.50816 | -116.85090 | 6847 ft | 266 kts | 123° |
| 2026-05-05 22:54 | 32.49788 | -116.83199 | 6582 ft | 276 kts | 123° |
| 2026-05-05 22:54 | 32.48772 | -116.81329 | 6322 ft | 264 kts | 123° |
| 2026-05-05 22:54 | 32.47803 | -116.79547 | 6063 ft | 252 kts | 123° |
| 2026-05-05 22:54 | 32.46873 | -116.77837 | 5776 ft | 243 kts | 123° |
| 2026-05-05 22:55 | 32.46040 | -116.76151 | 5549 ft | 231 kts | 108° |
| 2026-05-05 22:55 | 32.45985 | -116.74371 | 5508 ft | 211 kts | 65° |
| 2026-05-05 22:55 | 32.46875 | -116.73124 | 5334 ft | 198 kts | 21° |
| 2026-05-05 22:55 | 32.48192 | -116.72881 | 4980 ft | 191 kts | 355° |
| 2026-05-05 22:56 | 32.49508 | -116.72663 | 4639 ft | 194 kts | 14° |
| 2026-05-05 22:56 | 32.50736 | -116.71978 | 4300 ft | 198 kts | 32° |
| 2026-05-05 22:56 | 32.51629 | -116.70731 | 3918 ft | 205 kts | 66° |
| 2026-05-05 22:56 | 32.51933 | -116.69107 | 3591 ft | 198 kts | 77° |
| 2026-05-05 22:57 | 32.52524 | -116.67697 | 3130 ft | 192 kts | 35° |
| 2026-05-05 22:57 | 32.53679 | -116.67282 | 3043 ft | 164 kts | 341° |
| 2026-05-05 22:57 | 32.54521 | -116.68032 | 3214 ft | 155 kts | 300° |
| 2026-05-05 22:57 | 32.55106 | -116.69202 | 3277 ft | 177 kts | 301° |
| 2026-05-05 22:58 | 32.55770 | -116.70472 | 3212 ft | 181 kts | 291° |
| 2026-05-05 22:58 | 32.55822 | -116.71879 | 3225 ft | 171 kts | 255° |
| 2026-05-05 22:58 | 32.55440 | -116.73192 | 2936 ft | 169 kts | 257° |
| 2026-05-05 22:58 | 32.55210 | -116.74546 | 2545 ft | 165 kts | 263° |
| 2026-05-05 22:59 | 32.55048 | -116.75853 | 2498 ft | 157 kts | 262° |
| 2026-05-05 22:59 | 32.54872 | -116.77128 | 2225 ft | 157 kts | 261° |
| 2026-05-05 22:59 | 32.54696 | -116.78374 | 2338 ft | 152 kts | 262° |
| 2026-05-05 22:59 | 32.54516 | -116.79697 | 2441 ft | 172 kts | 262° |
| 2026-05-05 23:00 | 32.54132 | -116.82439 | 2369 ft | 161 kts | 261° |
| 2026-05-05 23:00 | 32.53950 | -116.83751 | 2388 ft | 162 kts | 262° |
| 2026-05-05 23:00 | 32.53767 | -116.85072 | 2378 ft | 162 kts | 262° |
| 2026-05-05 23:01 | 32.53587 | -116.86388 | 2300 ft | 165 kts | 263° |
| 2026-05-05 23:01 | 32.53448 | -116.87741 | 2017 ft | 164 kts | 264° |
| 2026-05-05 23:01 | 32.53354 | -116.89058 | 1694 ft | 154 kts | 267° |
| 2026-05-05 23:01 | 32.53340 | -116.90281 | 1370 ft | 147 kts | 272° |
| 2026-05-05 23:02 | 32.53392 | -116.91458 | 1127 ft | 139 kts | 275° |
| 2026-05-05 23:02 | 32.53532 | -116.92577 | 907 ft | 138 kts | 279° |
| 2026-05-05 23:02 | 32.53683 | -116.93728 | 807 ft | 142 kts | 278° |
| 2026-05-05 23:02 | 32.53825 | -116.94862 | 584 ft | 134 kts | 277° |
| 2026-05-05 23:03 | 32.53961 | -116.95898 | 476 ft | 109 kts | 278° |
| 2026-05-05 23:03 | 32.54040 | -116.96500 | 475 ft | 42 kts | 279° |
| 2026-05-05 23:03 | 32.54083 | -116.96716 | 471 ft | 21 kts | 279° |
| 2026-05-05 23:03 | 32.54109 | -116.96946 | 466 ft | 35 kts | 278° |